sensor_id;sensor_type;location;lat;lon;timestamp;pressure;altitude;pressure_sealevel;temperature
24740;BMP280;45234;48.148;17.128;2023-07-31T00:00:52;99838.25;;;20.91
24740;BMP280;45234;48.148;17.128;2023-07-31T00:03:19;99835.91;;;20.79
24740;BMP280;45234;48.148;17.128;2023-07-31T00:05:46;99840.94;;;20.70
24740;BMP280;45234;48.148;17.128;2023-07-31T00:08:12;99842.25;;;20.63
24740;BMP280;45234;48.148;17.128;2023-07-31T00:10:39;99852.50;;;20.64
24740;BMP280;45234;48.148;17.128;2023-07-31T00:13:06;99850.69;;;20.60
24740;BMP280;45234;48.148;17.128;2023-07-31T00:15:33;99850.16;;;20.58
24740;BMP280;45234;48.148;17.128;2023-07-31T00:18:00;99848.03;;;20.55
24740;BMP280;45234;48.148;17.128;2023-07-31T00:20:28;99845.97;;;20.52
24740;BMP280;45234;48.148;17.128;2023-07-31T00:22:55;99846.22;;;20.50
24740;BMP280;45234;48.148;17.128;2023-07-31T00:25:21;99856.47;;;20.47
24740;BMP280;45234;48.148;17.128;2023-07-31T00:27:48;99855.44;;;20.42
24740;BMP280;45234;48.148;17.128;2023-07-31T00:30:15;99866.78;;;20.43
24740;BMP280;45234;48.148;17.128;2023-07-31T00:32:43;99862.31;;;20.38
24740;BMP280;45234;48.148;17.128;2023-07-31T00:35:09;99866.00;;;20.37
24740;BMP280;45234;48.148;17.128;2023-07-31T00:37:36;99860.75;;;20.32
24740;BMP280;45234;48.148;17.128;2023-07-31T00:40:04;99862.84;;;20.30
24740;BMP280;45234;48.148;17.128;2023-07-31T00:42:31;99865.44;;;20.25
24740;BMP280;45234;48.148;17.128;2023-07-31T00:44:58;99859.94;;;20.22
24740;BMP280;45234;48.148;17.128;2023-07-31T00:47:24;99865.47;;;20.15
24740;BMP280;45234;48.148;17.128;2023-07-31T00:49:52;99867.06;;;20.11
24740;BMP280;45234;48.148;17.128;2023-07-31T00:52:19;99869.69;;;20.11
24740;BMP280;45234;48.148;17.128;2023-07-31T00:54:47;99877.59;;;20.11
24740;BMP280;45234;48.148;17.128;2023-07-31T00:57:15;99883.34;;;20.08
24740;BMP280;45234;48.148;17.128;2023-07-31T00:59:43;99885.19;;;20.08
24740;BMP280;45234;48.148;17.128;2023-07-31T01:02:10;99877.31;;;20.02
24740;BMP280;45234;48.148;17.128;2023-07-31T01:04:37;99880.72;;;19.98
24740;BMP280;45234;48.148;17.128;2023-07-31T01:07:27;99879.13;;;19.92
24740;BMP280;45234;48.148;17.128;2023-07-31T01:12:28;99885.44;;;19.86
24740;BMP280;45234;48.148;17.128;2023-07-31T01:15:07;99878.59;;;19.80
24740;BMP280;45234;48.148;17.128;2023-07-31T01:17:39;99877.81;;;19.84
24740;BMP280;45234;48.148;17.128;2023-07-31T01:20:12;99871.22;;;19.82
24740;BMP280;45234;48.148;17.128;2023-07-31T01:28:11;99870.97;;;19.78
24740;BMP280;45234;48.148;17.128;2023-07-31T01:30:43;99877.78;;;19.79
24740;BMP280;45234;48.148;17.128;2023-07-31T01:33:11;99874.91;;;19.81
24740;BMP280;45234;48.148;17.128;2023-07-31T01:35:38;99879.09;;;19.82
24740;BMP280;45234;48.148;17.128;2023-07-31T01:38:05;99882.81;;;19.81
24740;BMP280;45234;48.148;17.128;2023-07-31T01:40:33;99874.91;;;19.81
24740;BMP280;45234;48.148;17.128;2023-07-31T01:42:59;99873.88;;;19.77
24740;BMP280;45234;48.148;17.128;2023-07-31T01:45:28;99877.78;;;19.79
24740;BMP280;45234;48.148;17.128;2023-07-31T01:47:55;99878.34;;;19.76
24740;BMP280;45234;48.148;17.128;2023-07-31T01:50:22;99874.88;;;19.71
24740;BMP280;45234;48.148;17.128;2023-07-31T01:52:49;99876.97;;;19.69
24740;BMP280;45234;48.148;17.128;2023-07-31T01:55:16;99871.72;;;19.69
24740;BMP280;45234;48.148;17.128;2023-07-31T01:57:46;99879.09;;;19.67
24740;BMP280;45234;48.148;17.128;2023-07-31T02:00:13;99885.38;;;19.60
24740;BMP280;45234;48.148;17.128;2023-07-31T02:02:39;99881.69;;;19.61
24740;BMP280;45234;48.148;17.128;2023-07-31T02:05:07;99891.16;;;19.62
24740;BMP280;45234;48.148;17.128;2023-07-31T02:07:34;99882.75;;;19.65
24740;BMP280;45234;48.148;17.128;2023-07-31T02:10:00;99881.19;;;19.64
24740;BMP280;45234;48.148;17.128;2023-07-31T02:12:32;99887.78;;;19.67
24740;BMP280;45234;48.148;17.128;2023-07-31T02:15:02;99881.47;;;19.68
24740;BMP280;45234;48.148;17.128;2023-07-31T02:17:33;99881.97;;;19.70
24740;BMP280;45234;48.148;17.128;2023-07-31T02:20:00;99882.22;;;19.69
24740;BMP280;45234;48.148;17.128;2023-07-31T02:22:31;99875.94;;;19.70
24740;BMP280;45234;48.148;17.128;2023-07-31T02:24:59;99881.19;;;19.64
24740;BMP280;45234;48.148;17.128;2023-07-31T02:27:25;99883.81;;;19.59
24740;BMP280;45234;48.148;17.128;2023-07-31T02:29:54;99879.59;;;19.58
24740;BMP280;45234;48.148;17.128;2023-07-31T02:32:22;99873.78;;;19.56
24740;BMP280;45234;48.148;17.128;2023-07-31T02:34:49;99867.50;;;19.57
24740;BMP280;45234;48.148;17.128;2023-07-31T02:37:16;99869.06;;;19.53
24740;BMP280;45234;48.148;17.128;2023-07-31T02:39:43;99879.59;;;19.53
24740;BMP280;45234;48.148;17.128;2023-07-31T02:42:10;99886.91;;;19.51
24740;BMP280;45234;48.148;17.128;2023-07-31T02:44:37;99885.84;;;19.47
24740;BMP280;45234;48.148;17.128;2023-07-31T02:47:04;99878.75;;;19.43
24740;BMP280;45234;48.148;17.128;2023-07-31T02:49:33;99892.69;;;19.43
24740;BMP280;45234;48.148;17.128;2023-07-31T02:52:00;99887.13;;;19.40
24740;BMP280;45234;48.148;17.128;2023-07-31T02:54:27;99896.34;;;19.37
24740;BMP280;45234;48.148;17.128;2023-07-31T02:56:56;99887.91;;;19.35
24740;BMP280;45234;48.148;17.128;2023-07-31T02:59:23;99898.97;;;19.32
24740;BMP280;45234;48.148;17.128;2023-07-31T03:01:52;99898.41;;;19.30
24740;BMP280;45234;48.148;17.128;2023-07-31T03:04:18;99896.28;;;19.27
24740;BMP280;45234;48.148;17.128;2023-07-31T03:06:45;99901.00;;;19.25
24740;BMP280;45234;48.148;17.128;2023-07-31T03:09:12;99903.91;;;19.23
24740;BMP280;45234;48.148;17.128;2023-07-31T03:11:39;99903.09;;;19.18
24740;BMP280;45234;48.148;17.128;2023-07-31T03:14:06;99909.63;;;19.15
24740;BMP280;45234;48.148;17.128;2023-07-31T03:16:33;99907.28;;;19.14
24740;BMP280;45234;48.148;17.128;2023-07-31T03:19:00;99910.41;;;19.11
24740;BMP280;45234;48.148;17.128;2023-07-31T03:21:27;99922.44;;;19.07
24740;BMP280;45234;48.148;17.128;2023-07-31T03:23:54;99914.06;;;19.05
24740;BMP280;45234;48.148;17.128;2023-07-31T03:26:21;99915.09;;;19.04
24740;BMP280;45234;48.148;17.128;2023-07-31T03:28:48;99914.56;;;19.02
24740;BMP280;45234;48.148;17.128;2023-07-31T03:31:16;99918.25;;;19.01
24740;BMP280;45234;48.148;17.128;2023-07-31T03:33:43;99916.66;;;19.00
24740;BMP280;45234;48.148;17.128;2023-07-31T03:36:09;99917.66;;;18.99
24740;BMP280;45234;48.148;17.128;2023-07-31T03:38:36;99917.44;;;19.00
24740;BMP280;45234;48.148;17.128;2023-07-31T03:41:03;99920.88;;;19.01
24740;BMP280;45234;48.148;17.128;2023-07-31T03:43:32;99932.41;;;19.00
24740;BMP280;45234;48.148;17.128;2023-07-31T03:46:03;99927.66;;;18.97
24740;BMP280;45234;48.148;17.128;2023-07-31T03:48:30;99920.81;;;18.96
24740;BMP280;45234;48.148;17.128;2023-07-31T03:50:57;99921.63;;;18.96
24740;BMP280;45234;48.148;17.128;2023-07-31T03:53:24;99926.38;;;18.99
24740;BMP280;45234;48.148;17.128;2023-07-31T03:55:51;99929.00;;;18.99
24740;BMP280;45234;48.148;17.128;2023-07-31T03:58:18;99927.44;;;19.03
24740;BMP280;45234;48.148;17.128;2023-07-31T04:00:46;99924.56;;;19.05
24740;BMP280;45234;48.148;17.128;2023-07-31T04:03:14;99928.78;;;19.11
24740;BMP280;45234;48.148;17.128;2023-07-31T04:05:41;99926.47;;;19.14
24740;BMP280;45234;48.148;17.128;2023-07-31T04:08:08;99922.25;;;19.13
24740;BMP280;45234;48.148;17.128;2023-07-31T04:10:34;99929.88;;;19.15
24740;BMP280;45234;48.148;17.128;2023-07-31T04:13:01;99927.25;;;19.20
24740;BMP280;45234;48.148;17.128;2023-07-31T04:15:31;99929.41;;;19.28
24740;BMP280;45234;48.148;17.128;2023-07-31T04:17:58;99926.03;;;19.38
24740;BMP280;45234;48.148;17.128;2023-07-31T04:20:25;99933.44;;;19.46
24740;BMP280;45234;48.148;17.128;2023-07-31T04:22:52;99930.00;;;19.40
24740;BMP280;45234;48.148;17.128;2023-07-31T04:25:19;99927.38;;;19.40
24740;BMP280;45234;48.148;17.128;2023-07-31T04:27:47;99929.75;;;19.47
24740;BMP280;45234;48.148;17.128;2023-07-31T04:30:14;99931.56;;;19.36
24740;BMP280;45234;48.148;17.128;2023-07-31T04:32:41;99928.63;;;19.27
24740;BMP280;45234;48.148;17.128;2023-07-31T04:35:08;99936.75;;;19.26
24740;BMP280;45234;48.148;17.128;2023-07-31T04:37:35;99938.88;;;19.24
24740;BMP280;45234;48.148;17.128;2023-07-31T04:40:02;99942.22;;;19.19
24740;BMP280;45234;48.148;17.128;2023-07-31T04:42:30;99942.75;;;19.16
24740;BMP280;45234;48.148;17.128;2023-07-31T04:44:57;99930.38;;;19.12
24740;BMP280;45234;48.148;17.128;2023-07-31T04:47:24;99934.84;;;19.11
24740;BMP280;45234;48.148;17.128;2023-07-31T04:49:50;99929.88;;;19.15
24740;BMP280;45234;48.148;17.128;2023-07-31T04:52:17;99936.22;;;19.29
24740;BMP280;45234;48.148;17.128;2023-07-31T04:54:45;99936.81;;;19.36
24740;BMP280;45234;48.148;17.128;2023-07-31T04:57:11;99933.19;;;19.47
24740;BMP280;45234;48.148;17.128;2023-07-31T04:59:38;99933.75;;;19.54
24740;BMP280;45234;48.148;17.128;2023-07-31T05:02:06;99929.03;;;19.61
24740;BMP280;45234;48.148;17.128;2023-07-31T05:04:33;99929.84;;;19.67
24740;BMP280;45234;48.148;17.128;2023-07-31T05:07:00;99930.94;;;19.76
24740;BMP280;45234;48.148;17.128;2023-07-31T05:09:27;99939.06;;;19.75
24740;BMP280;45234;48.148;17.128;2023-07-31T05:11:54;99934.88;;;19.79
24740;BMP280;45234;48.148;17.128;2023-07-31T05:14:21;99943.06;;;19.87
24740;BMP280;45234;48.148;17.128;2023-07-31T05:16:48;99943.63;;;19.94
24740;BMP280;45234;48.148;17.128;2023-07-31T05:19:15;99939.16;;;20.05
24740;BMP280;45234;48.148;17.128;2023-07-31T05:21:42;99946.00;;;20.16
24740;BMP280;45234;48.148;17.128;2023-07-31T05:24:10;99954.97;;;20.66
24740;BMP280;45234;48.148;17.128;2023-07-31T05:26:37;99964.06;;;22.56
24740;BMP280;45234;48.148;17.128;2023-07-31T05:29:05;99960.59;;;24.80
24740;BMP280;45234;48.148;17.128;2023-07-31T05:31:32;99967.34;;;26.78
24740;BMP280;45234;48.148;17.128;2023-07-31T05:34:00;99962.75;;;28.16
24740;BMP280;45234;48.148;17.128;2023-07-31T05:36:26;99960.53;;;28.85
24740;BMP280;45234;48.148;17.128;2023-07-31T05:38:53;99968.44;;;28.73
24740;BMP280;45234;48.148;17.128;2023-07-31T05:41:20;99963.53;;;28.17
24740;BMP280;45234;48.148;17.128;2023-07-31T05:43:47;99964.31;;;28.55
24740;BMP280;45234;48.148;17.128;2023-07-31T05:46:14;99964.16;;;29.02
24740;BMP280;45234;48.148;17.128;2023-07-31T05:48:41;99966.47;;;29.44
24740;BMP280;45234;48.148;17.128;2023-07-31T05:51:10;99963.13;;;29.68
24740;BMP280;45234;48.148;17.128;2023-07-31T05:53:37;99969.16;;;30.02
24740;BMP280;45234;48.148;17.128;2023-07-31T05:56:07;99965.50;;;30.95
24740;BMP280;45234;48.148;17.128;2023-07-31T05:58:34;99970.84;;;31.07
24740;BMP280;45234;48.148;17.128;2023-07-31T06:01:03;99972.47;;;31.39
24740;BMP280;45234;48.148;17.128;2023-07-31T06:03:31;99973.72;;;32.04
24740;BMP280;45234;48.148;17.128;2023-07-31T06:05:58;99974.84;;;32.03
24740;BMP280;45234;48.148;17.128;2023-07-31T06:08:25;99978.69;;;32.37
24740;BMP280;45234;48.148;17.128;2023-07-31T06:10:52;99974.91;;;32.07
24740;BMP280;45234;48.148;17.128;2023-07-31T06:13:19;99977.25;;;32.08
24740;BMP280;45234;48.148;17.128;2023-07-31T06:15:46;99977.41;;;32.15
24740;BMP280;45234;48.148;17.128;2023-07-31T06:18:13;99982.06;;;32.34
24740;BMP280;45234;48.148;17.128;2023-07-31T06:20:40;99984.31;;;32.86
24740;BMP280;45234;48.148;17.128;2023-07-31T06:23:07;99985.50;;;33.08
24740;BMP280;45234;48.148;17.128;2023-07-31T06:25:34;99972.84;;;32.70
24740;BMP280;45234;48.148;17.128;2023-07-31T06:28:01;99976.31;;;32.51
24740;BMP280;45234;48.148;17.128;2023-07-31T06:30:28;99972.72;;;32.28
24740;BMP280;45234;48.148;17.128;2023-07-31T06:32:55;99973.03;;;32.77
24740;BMP280;45234;48.148;17.128;2023-07-31T06:35:22;99964.59;;;32.98
24740;BMP280;45234;48.148;17.128;2023-07-31T06:37:49;99985.59;;;33.57
24740;BMP280;45234;48.148;17.128;2023-07-31T06:40:18;99966.69;;;33.72
24740;BMP280;45234;48.148;17.128;2023-07-31T06:42:46;99965.53;;;34.00
24740;BMP280;45234;48.148;17.128;2023-07-31T06:45:13;99958.03;;;33.86
24740;BMP280;45234;48.148;17.128;2023-07-31T06:47:40;99962.50;;;33.75
24740;BMP280;45234;48.148;17.128;2023-07-31T06:50:07;99963.50;;;33.89
24740;BMP280;45234;48.148;17.128;2023-07-31T06:52:34;99960.16;;;34.00
24740;BMP280;45234;48.148;17.128;2023-07-31T06:55:03;99963.44;;;33.40
24740;BMP280;45234;48.148;17.128;2023-07-31T06:57:31;99960.47;;;32.46
24740;BMP280;45234;48.148;17.128;2023-07-31T06:59:59;99965.75;;;31.76
24740;BMP280;45234;48.148;17.128;2023-07-31T07:02:26;99965.06;;;30.92
24740;BMP280;45234;48.148;17.128;2023-07-31T07:04:53;99964.22;;;30.76
24740;BMP280;45234;48.148;17.128;2023-07-31T07:07:20;99955.84;;;31.18
24740;BMP280;45234;48.148;17.128;2023-07-31T07:09:47;99962.81;;;31.07
24740;BMP280;45234;48.148;17.128;2023-07-31T07:12:14;99962.56;;;31.71
24740;BMP280;45234;48.148;17.128;2023-07-31T07:14:40;99968.97;;;31.98
24740;BMP280;45234;48.148;17.128;2023-07-31T07:17:10;99970.50;;;31.99
24740;BMP280;45234;48.148;17.128;2023-07-31T07:19:40;99963.16;;;31.96
24740;BMP280;45234;48.148;17.128;2023-07-31T07:22:07;99964.06;;;32.34
24740;BMP280;45234;48.148;17.128;2023-07-31T07:24:34;99964.25;;;32.80
24740;BMP280;45234;48.148;17.128;2023-07-31T07:27:00;99963.72;;;32.94
24740;BMP280;45234;48.148;17.128;2023-07-31T07:29:28;99965.22;;;32.91
24740;BMP280;45234;48.148;17.128;2023-07-31T07:31:54;99961.50;;;32.96
24740;BMP280;45234;48.148;17.128;2023-07-31T07:34:28;99962.75;;;32.82
24740;BMP280;45234;48.148;17.128;2023-07-31T07:36:55;99961.53;;;32.99
24740;BMP280;45234;48.148;17.128;2023-07-31T07:39:22;99962.75;;;32.82
24740;BMP280;45234;48.148;17.128;2023-07-31T07:41:49;99961.97;;;32.82
24740;BMP280;45234;48.148;17.128;2023-07-31T07:44:16;99957.63;;;32.39
24740;BMP280;45234;48.148;17.128;2023-07-31T07:46:43;99950.63;;;31.37
24740;BMP280;45234;48.148;17.128;2023-07-31T07:49:11;99952.09;;;31.50
24740;BMP280;45234;48.148;17.128;2023-07-31T07:51:38;99946.88;;;31.26
24740;BMP280;45234;48.148;17.128;2023-07-31T07:54:05;99943.22;;;31.18
24740;BMP280;45234;48.148;17.128;2023-07-31T07:56:33;99952.47;;;31.21
24740;BMP280;45234;48.148;17.128;2023-07-31T07:59:00;99944.03;;;31.66
24740;BMP280;45234;48.148;17.128;2023-07-31T08:01:27;99942.88;;;31.79
24740;BMP280;45234;48.148;17.128;2023-07-31T08:03:54;99940.00;;;31.72
24740;BMP280;45234;48.148;17.128;2023-07-31T08:06:21;99938.06;;;32.04
24740;BMP280;45234;48.148;17.128;2023-07-31T08:08:49;99932.47;;;32.28
24740;BMP280;45234;48.148;17.128;2023-07-31T08:11:16;99945.94;;;32.12
24740;BMP280;45234;48.148;17.128;2023-07-31T08:13:43;99936.88;;;32.36
24740;BMP280;45234;48.148;17.128;2023-07-31T08:16:11;99934.50;;;32.50
24740;BMP280;45234;48.148;17.128;2023-07-31T08:18:38;99943.09;;;32.40
24740;BMP280;45234;48.148;17.128;2023-07-31T08:21:07;99940.19;;;32.64
24740;BMP280;45234;48.148;17.128;2023-07-31T08:23:34;99941.16;;;32.56
24740;BMP280;45234;48.148;17.128;2023-07-31T08:26:01;99942.03;;;32.10
24740;BMP280;45234;48.148;17.128;2023-07-31T08:28:28;99933.16;;;31.43
24740;BMP280;45234;48.148;17.128;2023-07-31T08:30:55;99936.13;;;30.70
24740;BMP280;45234;48.148;17.128;2023-07-31T08:33:22;99948.22;;;29.91
24740;BMP280;45234;48.148;17.128;2023-07-31T08:35:49;99941.22;;;29.42
24740;BMP280;45234;48.148;17.128;2023-07-31T08:38:16;99944.84;;;29.05
24740;BMP280;45234;48.148;17.128;2023-07-31T08:40:43;99946.34;;;28.93
24740;BMP280;45234;48.148;17.128;2023-07-31T08:43:10;99942.59;;;29.48
24740;BMP280;45234;48.148;17.128;2023-07-31T08:45:37;99942.31;;;29.86
24740;BMP280;45234;48.148;17.128;2023-07-31T08:48:05;99939.19;;;30.08
24740;BMP280;45234;48.148;17.128;2023-07-31T08:50:32;99950.91;;;30.16
24740;BMP280;45234;48.148;17.128;2023-07-31T08:52:59;99938.22;;;30.25
24740;BMP280;45234;48.148;17.128;2023-07-31T08:55:27;99934.63;;;30.45
24740;BMP280;45234;48.148;17.128;2023-07-31T08:57:55;99932.13;;;30.76
24740;BMP280;45234;48.148;17.128;2023-07-31T09:00:23;99937.06;;;30.62
24740;BMP280;45234;48.148;17.128;2023-07-31T09:05:31;99935.28;;;30.30
24740;BMP280;45234;48.148;17.128;2023-07-31T09:07:58;99930.13;;;30.61
24740;BMP280;45234;48.148;17.128;2023-07-31T09:10:26;99929.94;;;30.30
24740;BMP280;45234;48.148;17.128;2023-07-31T09:12:53;99927.50;;;30.37
24740;BMP280;45234;48.148;17.128;2023-07-31T09:15:21;99926.41;;;30.26
24740;BMP280;45234;48.148;17.128;2023-07-31T09:18:04;99921.16;;;30.17
24740;BMP280;45234;48.148;17.128;2023-07-31T09:20:32;99928.19;;;30.10
24740;BMP280;45234;48.148;17.128;2023-07-31T09:23:14;99933.41;;;29.82
24740;BMP280;45234;48.148;17.128;2023-07-31T09:25:44;99932.53;;;29.90
24740;BMP280;45234;48.148;17.128;2023-07-31T09:28:12;99922.69;;;29.70
24740;BMP280;45234;48.148;17.128;2023-07-31T09:30:47;99920.81;;;29.70
24740;BMP280;45234;48.148;17.128;2023-07-31T09:33:16;99920.13;;;29.73
24740;BMP280;45234;48.148;17.128;2023-07-31T09:35:43;99922.34;;;29.59
24740;BMP280;45234;48.148;17.128;2023-07-31T09:38:12;99925.44;;;29.61
24740;BMP280;45234;48.148;17.128;2023-07-31T09:40:49;99928.91;;;29.17
24740;BMP280;45234;48.148;17.128;2023-07-31T09:43:20;99924.03;;;29.31
24740;BMP280;45234;48.148;17.128;2023-07-31T09:45:47;99912.53;;;29.51
24740;BMP280;45234;48.148;17.128;2023-07-31T09:48:16;99914.22;;;29.35
24740;BMP280;45234;48.148;17.128;2023-07-31T09:50:46;99915.16;;;29.39
24740;BMP280;45234;48.148;17.128;2023-07-31T09:53:14;99915.59;;;29.41
24740;BMP280;45234;48.148;17.128;2023-07-31T09:55:41;99912.41;;;29.48
24740;BMP280;45234;48.148;17.128;2023-07-31T09:58:10;99910.25;;;29.41
24740;BMP280;45234;48.148;17.128;2023-07-31T10:00:38;99904.00;;;29.25
24740;BMP280;45234;48.148;17.128;2023-07-31T10:03:08;99910.72;;;28.89
24740;BMP280;45234;48.148;17.128;2023-07-31T10:05:42;99911.75;;;28.76
24740;BMP280;45234;48.148;17.128;2023-07-31T10:08:10;99903.78;;;28.47
24740;BMP280;45234;48.148;17.128;2023-07-31T10:10:42;99910.06;;;28.22
24740;BMP280;45234;48.148;17.128;2023-07-31T10:13:10;99903.09;;;28.09
24740;BMP280;45234;48.148;17.128;2023-07-31T10:15:37;99899.63;;;27.99
24740;BMP280;45234;48.148;17.128;2023-07-31T10:18:06;99885.50;;;27.61
24740;BMP280;45234;48.148;17.128;2023-07-31T10:20:34;99887.41;;;27.35
24740;BMP280;45234;48.148;17.128;2023-07-31T10:23:02;99888.53;;;27.25
24740;BMP280;45234;48.148;17.128;2023-07-31T10:25:30;99884.28;;;27.33
24740;BMP280;45234;48.148;17.128;2023-07-31T10:27:57;99890.22;;;27.38
24740;BMP280;45234;48.148;17.128;2023-07-31T10:30:28;99867.94;;;27.60
24740;BMP280;45234;48.148;17.128;2023-07-31T10:32:56;99870.69;;;27.89
24740;BMP280;45234;48.148;17.128;2023-07-31T10:35:24;99864.72;;;28.22
24740;BMP280;45234;48.148;17.128;2023-07-31T10:37:52;99871.72;;;28.35
24740;BMP280;45234;48.148;17.128;2023-07-31T10:40:24;99866.41;;;27.97
24740;BMP280;45234;48.148;17.128;2023-07-31T10:42:55;99862.50;;;27.94
24740;BMP280;45234;48.148;17.128;2023-07-31T10:45:38;99861.44;;;27.87
24740;BMP280;45234;48.148;17.128;2023-07-31T10:48:12;99849.38;;;27.89
24740;BMP280;45234;48.148;17.128;2023-07-31T10:50:49;99849.53;;;27.93
24740;BMP280;45234;48.148;17.128;2023-07-31T10:53:43;99841.41;;;27.89
24740;BMP280;45234;48.148;17.128;2023-07-31T10:56:10;99842.84;;;28.07
24740;BMP280;45234;48.148;17.128;2023-07-31T10:58:45;99837.34;;;28.13
24740;BMP280;45234;48.148;17.128;2023-07-31T11:01:12;99832.38;;;28.02
24740;BMP280;45234;48.148;17.128;2023-07-31T11:03:50;99831.34;;;27.86
24740;BMP280;45234;48.148;17.128;2023-07-31T11:06:20;99831.53;;;27.81
24740;BMP280;45234;48.148;17.128;2023-07-31T11:08:49;99815.06;;;27.88
24740;BMP280;45234;48.148;17.128;2023-07-31T11:11:18;99822.88;;;27.84
24740;BMP280;45234;48.148;17.128;2023-07-31T11:13:47;99832.56;;;27.51
24740;BMP280;45234;48.148;17.128;2023-07-31T11:16:17;99826.94;;;27.44
24740;BMP280;45234;48.148;17.128;2023-07-31T11:18:45;99820.34;;;27.58
24740;BMP280;45234;48.148;17.128;2023-07-31T11:21:16;99812.78;;;27.69
24740;BMP280;45234;48.148;17.128;2023-07-31T11:23:51;99807.19;;;27.53
24740;BMP280;45234;48.148;17.128;2023-07-31T11:26:18;99827.09;;;27.56
24740;BMP280;45234;48.148;17.128;2023-07-31T11:28:49;99816.97;;;27.24
24740;BMP280;45234;48.148;17.128;2023-07-31T11:31:17;99808.81;;;27.46
24740;BMP280;45234;48.148;17.128;2023-07-31T11:33:46;99803.25;;;27.68
24740;BMP280;45234;48.148;17.128;2023-07-31T11:36:17;99805.53;;;27.78
24740;BMP280;45234;48.148;17.128;2023-07-31T11:38:45;99814.66;;;27.77
24740;BMP280;45234;48.148;17.128;2023-07-31T11:41:15;99811.72;;;27.53
24740;BMP280;45234;48.148;17.128;2023-07-31T11:43:46;99811.91;;;27.48
24740;BMP280;45234;48.148;17.128;2023-07-31T11:46:15;99800.09;;;27.02
24740;BMP280;45234;48.148;17.128;2023-07-31T11:48:42;99802.59;;;26.90
24740;BMP280;45234;48.148;17.128;2023-07-31T11:51:11;99796.81;;;26.97
24740;BMP280;45234;48.148;17.128;2023-07-31T11:53:43;99793.53;;;27.08
24740;BMP280;45234;48.148;17.128;2023-07-31T11:56:13;99792.53;;;27.22
24740;BMP280;45234;48.148;17.128;2023-07-31T11:58:41;99793.78;;;27.33
24740;BMP280;45234;48.148;17.128;2023-07-31T12:01:10;99791.97;;;27.25
24740;BMP280;45234;48.148;17.128;2023-07-31T12:03:37;99782.91;;;27.08
24740;BMP280;45234;48.148;17.128;2023-07-31T12:06:04;99785.28;;;26.93
24740;BMP280;45234;48.148;17.128;2023-07-31T12:08:32;99779.59;;;27.03
24740;BMP280;45234;48.148;17.128;2023-07-31T12:11:03;99774.91;;;27.08
24740;BMP280;45234;48.148;17.128;2023-07-31T12:13:31;99777.41;;;26.70
24740;BMP280;45234;48.148;17.128;2023-07-31T12:16:00;99768.25;;;27.32
24740;BMP280;45234;48.148;17.128;2023-07-31T12:18:31;99770.34;;;27.64
24740;BMP280;45234;48.148;17.128;2023-07-31T12:21:01;99757.34;;;27.62
24740;BMP280;45234;48.148;17.128;2023-07-31T12:23:31;99755.38;;;27.51
24740;BMP280;45234;48.148;17.128;2023-07-31T12:28:42;99749.38;;;27.54
24740;BMP280;45234;48.148;17.128;2023-07-31T12:31:17;99747.16;;;27.65
24740;BMP280;45234;48.148;17.128;2023-07-31T12:33:46;99747.78;;;27.70
24740;BMP280;45234;48.148;17.128;2023-07-31T12:36:16;99744.81;;;27.63
24740;BMP280;45234;48.148;17.128;2023-07-31T12:38:44;99744.28;;;27.49
24740;BMP280;45234;48.148;17.128;2023-07-31T12:41:11;99734.84;;;27.13
24740;BMP280;45234;48.148;17.128;2023-07-31T12:43:40;99735.47;;;27.02
24740;BMP280;45234;48.148;17.128;2023-07-31T12:46:08;99732.66;;;26.98
24740;BMP280;45234;48.148;17.128;2023-07-31T12:48:37;99730.66;;;26.95
24740;BMP280;45234;48.148;17.128;2023-07-31T12:51:04;99726.13;;;26.96
24740;BMP280;45234;48.148;17.128;2023-07-31T12:53:33;99724.69;;;26.90
24740;BMP280;45234;48.148;17.128;2023-07-31T12:56:02;99717.34;;;26.78
24740;BMP280;45234;48.148;17.128;2023-07-31T12:58:29;99715.97;;;26.72
24740;BMP280;45234;48.148;17.128;2023-07-31T13:00:56;99709.06;;;26.71
24740;BMP280;45234;48.148;17.128;2023-07-31T13:03:23;99707.16;;;26.80
24740;BMP280;45234;48.148;17.128;2023-07-31T13:05:51;99701.53;;;26.99
24740;BMP280;45234;48.148;17.128;2023-07-31T13:08:19;99697.53;;;27.22
24740;BMP280;45234;48.148;17.128;2023-07-31T13:10:46;99691.66;;;27.46
24740;BMP280;45234;48.148;17.128;2023-07-31T13:13:14;99680.03;;;27.59
24740;BMP280;45234;48.148;17.128;2023-07-31T13:15:41;99678.09;;;27.68
24740;BMP280;45234;48.148;17.128;2023-07-31T13:18:09;99684.72;;;27.83
24740;BMP280;45234;48.148;17.128;2023-07-31T13:20:35;99682.50;;;27.85
24740;BMP280;45234;48.148;17.128;2023-07-31T13:23:02;99683.50;;;27.80
24740;BMP280;45234;48.148;17.128;2023-07-31T13:25:29;99674.34;;;27.60
24740;BMP280;45234;48.148;17.128;2023-07-31T13:27:56;99671.91;;;27.47
24740;BMP280;45234;48.148;17.128;2023-07-31T13:30:26;99666.94;;;27.45
24740;BMP280;45234;48.148;17.128;2023-07-31T13:32:54;99675.94;;;27.53
24740;BMP280;45234;48.148;17.128;2023-07-31T13:35:21;99666.06;;;27.53
24740;BMP280;45234;48.148;17.128;2023-07-31T13:37:48;99660.38;;;27.34
24740;BMP280;45234;48.148;17.128;2023-07-31T13:40:15;99666.53;;;27.26
24740;BMP280;45234;48.148;17.128;2023-07-31T13:42:42;99662.63;;;27.24
24740;BMP280;45234;48.148;17.128;2023-07-31T13:45:09;99644.75;;;26.95
24740;BMP280;45234;48.148;17.128;2023-07-31T13:47:38;99647.13;;;26.79
24740;BMP280;45234;48.148;17.128;2023-07-31T13:50:05;99648.41;;;26.73
24740;BMP280;45234;48.148;17.128;2023-07-31T13:52:32;99644.63;;;26.74
24740;BMP280;45234;48.148;17.128;2023-07-31T13:54:59;99630.25;;;26.75
24740;BMP280;45234;48.148;17.128;2023-07-31T13:57:26;99633.56;;;26.63
24740;BMP280;45234;48.148;17.128;2023-07-31T13:59:55;99628.41;;;26.67
24740;BMP280;45234;48.148;17.128;2023-07-31T14:02:21;99627.59;;;26.75
24740;BMP280;45234;48.148;17.128;2023-07-31T14:04:48;99629.94;;;26.77
24740;BMP280;45234;48.148;17.128;2023-07-31T14:07:15;99624.72;;;26.80
24740;BMP280;45234;48.148;17.128;2023-07-31T14:09:44;99622.06;;;26.80
24740;BMP280;45234;48.148;17.128;2023-07-31T14:12:11;99616.91;;;26.84
24740;BMP280;45234;48.148;17.128;2023-07-31T14:14:38;99611.88;;;26.91